createdAt,value
2022-07-27T00:00:59.079Z,49.15
2022-07-27T00:03:26.234Z,49.28
2022-07-27T00:05:53.071Z,49.57
2022-07-27T00:08:20.771Z,49.81
2022-07-27T00:10:48.023Z,49.90
2022-07-27T00:13:15.063Z,49.77
2022-07-27T00:15:42.210Z,50.25
2022-07-27T00:18:09.748Z,50.16
2022-07-27T00:20:37.484Z,50.39
2022-07-27T00:23:04.266Z,50.54
2022-07-27T00:25:31.359Z,50.47
2022-07-27T00:27:58.232Z,50.68
2022-07-27T00:30:26.005Z,50.76
2022-07-27T00:32:53.445Z,50.57
2022-07-27T00:35:20.300Z,51.17
2022-07-27T00:37:47.023Z,51.40
2022-07-27T00:40:14.674Z,51.56
2022-07-27T00:42:41.656Z,51.51
2022-07-27T00:45:09.066Z,51.72
2022-07-27T00:47:36.121Z,51.64
2022-07-27T00:50:03.369Z,52.02
2022-07-27T00:52:30.987Z,52.21
2022-07-27T00:54:59.308Z,52.47
2022-07-27T00:57:28.000Z,52.74
2022-07-27T00:59:54.917Z,53.40
2022-07-27T01:02:22.927Z,52.97
2022-07-27T01:04:53.646Z,53.37
2022-07-27T01:07:25.979Z,53.63
2022-07-27T01:09:58.877Z,53.76
2022-07-27T01:12:32.304Z,53.65
2022-07-27T01:15:01.110Z,54.05
2022-07-27T01:17:31.491Z,54.41
2022-07-27T01:19:59.169Z,54.26
2022-07-27T01:22:27.000Z,54.54
2022-07-27T01:24:54.316Z,54.65
2022-07-27T01:27:21.264Z,54.78
2022-07-27T01:29:48.839Z,55.02
2022-07-27T01:32:16.130Z,55.05
2022-07-27T01:34:43.021Z,55.18
2022-07-27T01:37:09.912Z,55.62
2022-07-27T01:39:36.990Z,55.14
2022-07-27T01:42:04.131Z,55.49
2022-07-27T01:44:31.810Z,55.37
2022-07-27T01:46:58.562Z,55.48
2022-07-27T01:49:25.567Z,55.47
2022-07-27T01:51:52.522Z,55.46
2022-07-27T01:54:19.361Z,55.66
2022-07-27T01:56:46.118Z,55.92
2022-07-27T01:59:16.110Z,56.32
2022-07-27T02:01:43.552Z,56.06
2022-07-27T02:04:10.540Z,56.08
2022-07-27T02:06:37.585Z,56.58
2022-07-27T02:09:04.432Z,56.53
2022-07-27T02:11:49.766Z,56.39
2022-07-27T02:14:16.931Z,56.59
2022-07-27T02:16:43.801Z,56.97
2022-07-27T02:19:11.251Z,57.05
2022-07-27T02:21:39.062Z,57.08
2022-07-27T02:24:06.465Z,56.90
2022-07-27T02:26:33.333Z,57.87
2022-07-27T02:29:00.507Z,58.43
2022-07-27T02:31:32.690Z,58.73
2022-07-27T02:34:00.752Z,58.44
2022-07-27T02:36:30.927Z,58.50
2022-07-27T02:38:58.342Z,58.02
2022-07-27T02:41:25.199Z,58.01
2022-07-27T02:43:52.281Z,57.76
2022-07-27T02:46:19.730Z,58.33
2022-07-27T02:48:47.010Z,58.55
2022-07-27T02:51:15.357Z,58.53
2022-07-27T02:53:42.240Z,58.23
2022-07-27T02:56:09.422Z,58.23
2022-07-27T02:58:36.935Z,58.29
2022-07-27T03:01:05.255Z,58.38
2022-07-27T03:03:35.897Z,58.58
2022-07-27T03:06:05.929Z,59.00
2022-07-27T03:08:32.896Z,58.74
2022-07-27T03:10:59.671Z,58.81
2022-07-27T03:13:26.837Z,58.72
2022-07-27T03:15:53.628Z,58.62
2022-07-27T03:18:21.171Z,58.17
2022-07-27T03:20:48.230Z,58.45
2022-07-27T03:23:15.338Z,58.41
2022-07-27T03:25:42.104Z,58.10
2022-07-27T03:28:10.008Z,58.25
2022-07-27T03:30:37.028Z,58.00
2022-07-27T03:33:04.326Z,57.64
2022-07-27T03:35:31.306Z,57.22
2022-07-27T03:37:58.781Z,57.43
2022-07-27T03:40:25.746Z,57.62
2022-07-27T03:42:52.716Z,57.31
2022-07-27T03:45:19.504Z,56.82
2022-07-27T03:47:46.293Z,56.50
2022-07-27T03:50:13.198Z,56.26
2022-07-27T03:52:39.965Z,56.05
2022-07-27T03:55:12.596Z,55.73
2022-07-27T03:57:40.071Z,55.46
2022-07-27T04:00:08.728Z,54.65
2022-07-27T04:02:35.460Z,54.71
2022-07-27T04:05:02.629Z,55.59
2022-07-27T04:07:29.383Z,55.59
2022-07-27T04:09:56.389Z,55.13
2022-07-27T04:12:24.146Z,55.57
2022-07-27T04:14:51.804Z,55.74
2022-07-27T04:17:56.119Z,55.58
2022-07-27T04:20:06.896Z,56.03
2022-07-27T04:22:33.697Z,56.06
2022-07-27T04:25:00.718Z,56.37
2022-07-27T04:27:27.792Z,56.40
2022-07-27T04:29:54.625Z,56.31
2022-07-27T04:32:21.438Z,56.05
2022-07-27T04:34:48.695Z,55.94
2022-07-27T04:37:15.657Z,56.12
2022-07-27T04:39:42.529Z,55.72
2022-07-27T04:42:09.675Z,55.03
2022-07-27T04:44:36.391Z,54.25
2022-07-27T04:47:03.209Z,54.01
2022-07-27T04:49:30.301Z,53.74
2022-07-27T04:51:57.084Z,53.13
2022-07-27T04:54:23.991Z,53.49
2022-07-27T04:56:51.734Z,54.02
2022-07-27T04:59:18.619Z,53.54
2022-07-27T05:01:45.463Z,53.67
2022-07-27T05:04:12.552Z,53.63
2022-07-27T05:06:39.492Z,53.84
2022-07-27T05:09:06.450Z,53.71
2022-07-27T05:11:33.954Z,53.27
2022-07-27T05:14:00.826Z,53.78
2022-07-27T05:16:29.090Z,54.38
2022-07-27T05:18:57.333Z,54.91
2022-07-27T05:21:25.116Z,54.79
2022-07-27T05:23:52.058Z,54.64
2022-07-27T05:26:19.088Z,54.40
2022-07-27T05:28:45.879Z,54.13
2022-07-27T05:31:12.639Z,53.57
2022-07-27T05:33:39.592Z,53.04
2022-07-27T05:36:07.830Z,52.08
2022-07-27T05:38:39.426Z,51.90
2022-07-27T05:41:07.972Z,50.21
2022-07-27T05:43:40.393Z,49.96
2022-07-27T05:46:07.534Z,48.64
2022-07-27T05:48:34.379Z,49.01
2022-07-27T05:51:01.060Z,48.14
2022-07-27T05:53:28.090Z,47.48
2022-07-27T05:55:58.676Z,47.54
2022-07-27T05:58:27.926Z,46.20
2022-07-27T06:00:56.512Z,46.09
2022-07-27T06:03:23.725Z,45.15
2022-07-27T06:05:50.577Z,44.84
2022-07-27T06:08:17.495Z,44.25
2022-07-27T06:10:44.460Z,44.26
2022-07-27T06:13:14.302Z,43.29
2022-07-27T06:15:41.361Z,43.48
2022-07-27T06:18:14.903Z,43.60
2022-07-27T06:20:43.213Z,42.87
2022-07-27T06:23:10.983Z,42.89
2022-07-27T06:25:37.756Z,41.30
2022-07-27T06:28:06.049Z,40.47
2022-07-27T06:30:33.461Z,40.85
2022-07-27T06:33:01.167Z,40.63
2022-07-27T06:35:28.140Z,40.60
2022-07-27T06:37:54.881Z,39.40
2022-07-27T06:40:22.027Z,38.83
2022-07-27T06:42:49.044Z,38.78
2022-07-27T06:45:16.589Z,39.11
2022-07-27T06:47:49.901Z,39.49
2022-07-27T06:50:18.501Z,38.79
2022-07-27T06:52:45.325Z,38.93
2022-07-27T06:55:13.885Z,37.69
2022-07-27T06:57:42.153Z,37.81
2022-07-27T07:00:09.831Z,37.42
2022-07-27T07:02:36.580Z,37.19
2022-07-27T07:05:04.187Z,35.94
2022-07-27T07:07:31.708Z,35.78
2022-07-27T07:09:59.166Z,35.91
2022-07-27T07:12:28.391Z,35.90
2022-07-27T07:14:55.197Z,35.72
2022-07-27T07:17:21.921Z,35.89
2022-07-27T07:19:48.759Z,35.66
2022-07-27T07:22:15.566Z,35.74
2022-07-27T07:24:42.501Z,35.34
2022-07-27T07:27:09.385Z,35.50
2022-07-27T07:29:36.141Z,35.23
2022-07-27T07:32:02.875Z,35.69
2022-07-27T07:34:30.933Z,35.30
2022-07-27T07:36:58.206Z,35.29
2022-07-27T07:39:30.857Z,34.84
2022-07-27T07:41:58.759Z,34.55
2022-07-27T07:44:27.109Z,34.76
2022-07-27T07:46:56.055Z,35.22
2022-07-27T07:49:37.807Z,35.01
2022-07-27T07:52:08.057Z,33.87
2022-07-27T07:54:36.727Z,34.20
2022-07-27T07:59:47.377Z,34.77
2022-07-27T08:02:14.919Z,33.93
2022-07-27T08:04:43.857Z,34.15
2022-07-27T08:07:10.907Z,34.27
2022-07-27T08:09:39.192Z,33.59
2022-07-27T08:12:06.529Z,33.67
2022-07-27T08:14:34.989Z,33.47
2022-07-27T08:17:02.056Z,32.95
2022-07-27T08:19:28.876Z,33.18
2022-07-27T08:21:55.832Z,33.31
2022-07-27T08:24:22.547Z,32.98
2022-07-27T08:26:49.287Z,32.55
2022-07-27T08:29:17.282Z,32.26
2022-07-27T08:31:51.204Z,31.98
2022-07-27T08:34:18.956Z,32.00
2022-07-27T08:36:45.682Z,31.60
2022-07-27T08:39:41.251Z,31.92
2022-07-27T08:42:05.830Z,31.92
2022-07-27T08:44:33.674Z,32.06
2022-07-27T08:47:04.270Z,31.63
2022-07-27T08:49:43.197Z,31.83
2022-07-27T08:52:11.751Z,31.95
2022-07-27T08:54:40.287Z,32.15
2022-07-27T08:57:11.248Z,31.36
2022-07-27T08:59:41.975Z,31.84
2022-07-27T09:02:13.339Z,32.12
2022-07-27T09:04:41.243Z,31.77
2022-07-27T09:07:08.118Z,31.85
2022-07-27T09:09:46.572Z,31.55
2022-07-27T09:12:13.572Z,31.72
2022-07-27T09:14:41.610Z,31.77
2022-07-27T09:20:19.346Z,31.52
2022-07-27T09:22:56.250Z,30.38
2022-07-27T09:26:00.246Z,30.72
2022-07-27T09:28:13.543Z,29.67
2022-07-27T09:30:44.083Z,29.51
2022-07-27T09:33:11.040Z,29.36
2022-07-27T09:35:38.012Z,29.35
2022-07-27T09:38:22.051Z,29.15
2022-07-27T09:41:02.402Z,28.96
2022-07-27T09:46:32.836Z,28.92
2022-07-27T09:49:00.776Z,29.02
2022-07-27T09:54:17.106Z,28.20
2022-07-27T09:56:44.884Z,27.83
2022-07-27T09:59:18.459Z,28.03
2022-07-27T10:01:49.927Z,27.52
2022-07-27T10:04:21.929Z,27.72
2022-07-27T10:07:02.380Z,28.09
2022-07-27T10:09:37.310Z,28.09
2022-07-27T10:12:19.856Z,27.92
2022-07-27T10:14:50.895Z,27.12
2022-07-27T10:17:24.533Z,27.28
2022-07-27T10:19:51.703Z,27.14
2022-07-27T10:22:51.927Z,26.04
2022-07-27T10:25:19.662Z,26.12
2022-07-27T10:27:48.705Z,25.37
2022-07-27T10:30:24.000Z,25.45
2022-07-27T10:32:54.708Z,25.39
2022-07-27T10:35:40.114Z,25.45
2022-07-27T10:38:13.040Z,25.36
2022-07-27T10:40:40.130Z,25.25
2022-07-27T10:43:20.051Z,25.75
2022-07-27T10:46:00.982Z,25.30
2022-07-27T10:48:47.857Z,25.42
2022-07-27T10:51:17.131Z,24.72
2022-07-27T10:56:46.938Z,24.42
2022-07-27T10:59:14.161Z,24.39
2022-07-27T11:01:57.877Z,24.28
2022-07-27T11:04:24.989Z,24.65
2022-07-27T11:10:07.638Z,23.78
2022-07-27T11:12:36.761Z,22.70
2022-07-27T11:15:04.664Z,23.33
2022-07-27T11:20:23.706Z,22.20
2022-07-27T11:25:38.128Z,23.10
2022-07-27T11:28:09.236Z,23.24
2022-07-27T11:30:36.618Z,23.15
2022-07-27T11:33:05.287Z,22.50
2022-07-27T11:35:32.512Z,22.40
2022-07-27T11:38:05.793Z,22.22
2022-07-27T11:40:56.970Z,22.43
2022-07-27T11:43:45.856Z,21.98
2022-07-27T11:46:24.767Z,22.73
2022-07-27T11:49:07.894Z,22.48
2022-07-27T11:51:41.578Z,23.10
2022-07-27T11:54:10.796Z,22.69
2022-07-27T11:56:43.270Z,22.09
2022-07-27T11:59:16.435Z,21.82
2022-07-27T12:01:50.495Z,22.13
2022-07-27T12:04:30.573Z,22.01
2022-07-27T12:07:03.301Z,22.14
2022-07-27T12:09:38.116Z,21.71
2022-07-27T12:12:16.902Z,21.44
2022-07-27T12:14:51.292Z,21.82
2022-07-27T12:17:20.968Z,21.04
2022-07-27T12:19:53.091Z,21.79
2022-07-27T12:22:30.563Z,21.64
2022-07-27T12:24:59.209Z,22.36
2022-07-27T12:27:27.415Z,22.13
2022-07-27T12:30:00.234Z,21.34
2022-07-27T12:32:30.092Z,20.96
2022-07-27T12:34:57.554Z,21.01
2022-07-27T12:37:30.018Z,21.03
2022-07-27T12:39:57.634Z,21.20
2022-07-27T12:42:36.353Z,20.81
2022-07-27T12:45:16.663Z,21.25
2022-07-27T12:47:43.988Z,20.72
2022-07-27T12:50:14.907Z,21.04
2022-07-27T12:52:52.004Z,20.73
2022-07-27T12:55:24.309Z,20.49
2022-07-27T12:57:56.157Z,20.19
2022-07-27T13:00:29.386Z,21.21
2022-07-27T13:03:00.703Z,20.39
2022-07-27T13:05:27.885Z,20.71
2022-07-27T13:07:55.748Z,20.78
2022-07-27T13:10:22.604Z,20.68
2022-07-27T13:12:49.993Z,20.93
2022-07-27T13:15:18.254Z,20.78
2022-07-27T13:17:46.604Z,21.44
2022-07-27T13:20:14.993Z,21.50
2022-07-27T13:22:42.498Z,21.10
2022-07-27T13:25:16.410Z,21.44
2022-07-27T13:27:46.021Z,19.99
2022-07-27T13:30:14.718Z,20.44
2022-07-27T13:32:42.966Z,20.11
2022-07-27T13:35:12.444Z,20.38
2022-07-27T13:37:40.873Z,20.03
2022-07-27T13:40:09.913Z,20.17
2022-07-27T13:42:37.596Z,20.60
2022-07-27T13:45:11.293Z,20.51
2022-07-27T13:47:41.027Z,20.01
2022-07-27T13:50:13.670Z,19.97
2022-07-27T13:52:46.452Z,19.68
2022-07-27T13:55:17.926Z,19.68
2022-07-27T13:57:46.150Z,19.76
2022-07-27T14:00:14.110Z,19.88
2022-07-27T14:02:41.996Z,20.09
2022-07-27T14:05:10.012Z,20.11
2022-07-27T14:07:40.450Z,20.56
2022-07-27T14:10:26.512Z,20.31
2022-07-27T14:12:58.815Z,20.14
2022-07-27T14:15:26.724Z,19.62
2022-07-27T14:17:53.758Z,19.74
2022-07-27T14:20:20.758Z,19.89
2022-07-27T14:22:47.714Z,20.02
2022-07-27T14:25:14.908Z,19.86
2022-07-27T14:27:42.574Z,19.72
2022-07-27T14:30:10.173Z,20.06
2022-07-27T14:32:37.026Z,20.14
2022-07-27T14:35:05.062Z,19.57
2022-07-27T14:37:34.299Z,19.87
2022-07-27T14:40:01.832Z,19.63
2022-07-27T14:42:29.685Z,19.48
2022-07-27T14:44:57.187Z,19.65
2022-07-27T14:47:24.235Z,19.84
2022-07-27T14:49:51.691Z,19.94
2022-07-27T14:52:19.262Z,20.31
2022-07-27T14:54:47.816Z,19.89
2022-07-27T14:57:16.631Z,20.05
2022-07-27T14:59:44.962Z,20.40
2022-07-27T15:02:14.492Z,20.00
2022-07-27T15:04:52.710Z,20.06
2022-07-27T15:07:22.327Z,19.89
2022-07-27T15:09:49.726Z,19.47
2022-07-27T15:12:17.452Z,19.56
2022-07-27T15:15:44.469Z,19.71
2022-07-27T15:21:58.975Z,19.45
2022-07-27T15:24:26.291Z,19.55
2022-07-27T15:26:55.010Z,19.08
2022-07-27T15:32:39.425Z,19.21
2022-07-27T15:35:06.865Z,19.39
2022-07-27T15:37:34.020Z,19.14
2022-07-27T15:40:20.950Z,19.16
2022-07-27T15:42:48.201Z,19.83
2022-07-27T15:45:38.978Z,19.14
2022-07-27T15:48:08.406Z,19.70
2022-07-27T15:50:37.938Z,19.92
2022-07-27T15:53:05.687Z,19.79
2022-07-27T15:55:33.977Z,19.91
2022-07-27T15:58:00.790Z,19.92
2022-07-27T16:00:27.645Z,19.89
2022-07-27T16:02:56.838Z,20.06
2022-07-27T16:05:24.016Z,19.77
2022-07-27T16:07:51.865Z,19.83
2022-07-27T16:10:18.740Z,19.74
2022-07-27T16:12:45.702Z,19.70
2022-07-27T16:15:17.928Z,20.00
2022-07-27T16:17:44.928Z,20.02
2022-07-27T16:20:13.461Z,20.63
2022-07-27T16:22:49.511Z,20.58
2022-07-27T16:25:16.597Z,20.61
2022-07-27T16:27:44.554Z,20.22
2022-07-27T16:30:20.442Z,20.40
2022-07-27T16:32:48.189Z,20.24
2022-07-27T16:35:15.039Z,20.84
2022-07-27T16:37:41.785Z,20.74
2022-07-27T16:40:09.420Z,20.49
2022-07-27T16:42:38.033Z,20.79
2022-07-27T16:45:05.828Z,20.55
2022-07-27T16:47:32.876Z,21.06
2022-07-27T16:49:59.678Z,21.18
2022-07-27T16:52:26.464Z,21.15
2022-07-27T16:54:53.554Z,20.80
2022-07-27T16:57:20.289Z,20.12
2022-07-27T16:59:47.166Z,20.62
2022-07-27T17:02:42.865Z,20.78
2022-07-27T17:05:20.853Z,20.65
2022-07-27T17:07:51.155Z,20.24
2022-07-27T17:10:26.804Z,20.50
2022-07-27T17:12:55.708Z,20.58
2022-07-27T17:15:25.202Z,21.13
2022-07-27T17:17:52.019Z,20.91
2022-07-27T17:20:32.961Z,20.90
2022-07-27T17:23:05.792Z,20.67
2022-07-27T17:25:32.730Z,21.11
2022-07-27T17:27:59.697Z,21.31
2022-07-27T17:30:26.529Z,21.08
2022-07-27T17:32:54.128Z,21.51
2022-07-27T17:35:21.011Z,21.21
2022-07-27T17:38:05.456Z,21.63
2022-07-27T17:40:32.889Z,21.96
2022-07-27T17:42:59.592Z,21.95
2022-07-27T17:45:26.547Z,21.86
2022-07-27T17:58:10.149Z,22.39
2022-07-27T18:00:37.286Z,22.64
2022-07-27T18:03:05.368Z,22.64
2022-07-27T18:05:32.649Z,22.71
2022-07-27T18:07:59.810Z,22.90
2022-07-27T18:10:26.570Z,22.59
2022-07-27T18:12:53.307Z,22.87
2022-07-27T18:15:39.439Z,22.95
2022-07-27T18:18:06.206Z,23.12
2022-07-27T18:20:33.278Z,23.50
2022-07-27T18:23:00.116Z,23.39
2022-07-27T18:25:27.645Z,23.66
2022-07-27T18:27:55.046Z,23.41
2022-07-27T18:30:22.094Z,23.67
2022-07-27T18:32:51.042Z,23.74
2022-07-27T18:35:18.976Z,24.05
2022-07-27T18:37:50.899Z,23.82
2022-07-27T18:40:18.460Z,23.98
2022-07-27T18:42:46.988Z,23.99
2022-07-27T18:45:13.808Z,24.36
2022-07-27T18:47:40.585Z,24.38
2022-07-27T18:50:17.101Z,24.42
2022-07-27T18:52:44.223Z,24.64
2022-07-27T18:58:54.956Z,25.00
2022-07-27T19:01:22.222Z,24.82
2022-07-27T19:03:50.478Z,24.94
2022-07-27T19:06:18.129Z,24.97
2022-07-27T19:08:45.611Z,25.00
2022-07-27T19:11:12.428Z,25.16
2022-07-27T19:13:40.228Z,25.28
2022-07-27T19:16:07.457Z,25.60
2022-07-27T19:18:34.311Z,25.15
2022-07-27T19:21:01.379Z,25.33
2022-07-27T19:23:28.428Z,25.66
2022-07-27T19:26:00.390Z,25.50
2022-07-27T19:28:27.804Z,25.38
2022-07-27T19:30:54.684Z,25.61
2022-07-27T19:33:21.558Z,25.45
2022-07-27T19:35:50.648Z,25.62
2022-07-27T19:38:17.484Z,25.60
2022-07-27T19:40:46.038Z,25.73
2022-07-27T19:43:17.501Z,25.68
2022-07-27T19:45:44.416Z,25.57
2022-07-27T19:48:11.861Z,25.97
2022-07-27T19:50:39.297Z,25.53
2022-07-27T19:53:06.151Z,25.66
2022-07-27T19:55:33.212Z,25.78
2022-07-27T19:58:00.991Z,25.89
2022-07-27T20:00:28.125Z,25.86
2022-07-27T20:02:54.984Z,26.12
2022-07-27T20:05:22.243Z,25.94
2022-07-27T20:07:48.981Z,26.03
2022-07-27T20:10:16.254Z,25.83
2022-07-27T20:12:43.222Z,25.70
2022-07-27T20:15:10.493Z,26.26
2022-07-27T20:17:37.739Z,26.00
2022-07-27T20:20:09.355Z,26.13
2022-07-27T20:22:36.845Z,25.97
2022-07-27T20:25:03.973Z,25.90
2022-07-27T20:27:30.968Z,25.86
2022-07-27T20:29:58.191Z,25.78
2022-07-27T20:32:25.132Z,26.49
2022-07-27T20:34:52.390Z,26.03
2022-07-27T20:37:19.203Z,26.13
2022-07-27T20:39:45.992Z,26.56
2022-07-27T20:42:13.366Z,26.68
2022-07-27T20:44:40.115Z,26.44
2022-07-27T20:47:08.173Z,26.86
2022-07-27T20:49:35.318Z,27.06
2022-07-27T20:52:02.206Z,26.83
2022-07-27T20:54:29.814Z,26.73
2022-07-27T20:56:58.097Z,26.79
2022-07-27T20:59:24.977Z,27.14
2022-07-27T21:01:52.772Z,26.99
2022-07-27T21:04:24.957Z,27.18
2022-07-27T21:06:52.158Z,27.64
2022-07-27T21:09:18.968Z,27.34
2022-07-27T21:11:46.321Z,27.49
2022-07-27T21:14:13.125Z,27.86
2022-07-27T21:16:40.381Z,27.91
2022-07-27T21:19:07.717Z,27.75
2022-07-27T21:21:34.657Z,27.85
2022-07-27T21:24:18.545Z,27.95
2022-07-27T21:26:48.850Z,28.42
2022-07-27T21:29:16.335Z,28.39
2022-07-27T21:31:48.187Z,28.38
2022-07-27T21:34:19.863Z,28.44
2022-07-27T21:36:48.046Z,28.48
2022-07-27T21:39:15.208Z,28.39
2022-07-27T21:41:42.361Z,28.16
2022-07-27T21:44:09.491Z,28.21
2022-07-27T21:46:36.500Z,28.64
2022-07-27T21:49:03.991Z,28.57
2022-07-27T21:51:30.986Z,28.60
2022-07-27T21:53:57.815Z,28.83
2022-07-27T21:56:24.863Z,28.99
2022-07-27T21:58:51.836Z,29.05
2022-07-27T22:01:19.056Z,29.26
2022-07-27T22:03:46.394Z,29.26
2022-07-27T22:06:13.860Z,29.73
2022-07-27T22:08:40.751Z,30.03
2022-07-27T22:11:07.870Z,30.02
2022-07-27T22:13:36.094Z,30.10
2022-07-27T22:16:03.270Z,30.38
2022-07-27T22:18:31.573Z,30.50
2022-07-27T22:20:58.713Z,30.37
2022-07-27T22:23:26.052Z,30.49
2022-07-27T22:25:53.283Z,30.78
2022-07-27T22:28:20.540Z,30.84
2022-07-27T22:31:20.444Z,30.90
2022-07-27T22:33:39.975Z,31.25
2022-07-27T22:36:11.988Z,31.36
2022-07-27T22:38:39.358Z,31.50
2022-07-27T22:41:08.702Z,31.45
2022-07-27T22:43:35.854Z,31.38
2022-07-27T22:46:06.888Z,31.51
2022-07-27T22:48:33.959Z,31.43
2022-07-27T22:51:00.865Z,31.75
2022-07-27T22:53:28.376Z,31.79
2022-07-27T22:55:56.431Z,32.10
2022-07-27T22:58:23.306Z,32.06
2022-07-27T23:00:53.456Z,32.16
2022-07-27T23:03:23.278Z,32.18
2022-07-27T23:05:50.154Z,32.27
2022-07-27T23:08:17.107Z,32.23
2022-07-27T23:10:48.331Z,32.48
2022-07-27T23:13:17.350Z,32.76
2022-07-27T23:15:45.858Z,32.86
2022-07-27T23:18:16.665Z,33.09
2022-07-27T23:20:44.069Z,33.44
2022-07-27T23:23:16.769Z,33.19
2022-07-27T23:25:48.011Z,33.52
2022-07-27T23:28:16.492Z,33.65
2022-07-27T23:30:43.855Z,33.54
2022-07-27T23:33:11.209Z,33.53
2022-07-27T23:35:38.226Z,33.70
2022-07-27T23:38:05.073Z,33.75
2022-07-27T23:40:31.777Z,33.74
2022-07-27T23:42:59.637Z,33.73
2022-07-27T23:45:27.111Z,33.78
2022-07-27T23:47:54.520Z,34.04
2022-07-27T23:50:22.524Z,34.02
2022-07-27T23:52:52.020Z,34.47
2022-07-27T23:55:19.284Z,34.36
2022-07-27T23:57:47.353Z,34.92
